createdAt,value
2023-05-25T00:01:01.045Z,9.25
2023-05-25T00:04:04.540Z,9.20
2023-05-25T00:07:06.599Z,9.15
2023-05-25T00:10:08.921Z,9.08
2023-05-25T00:13:10.657Z,9.04
2023-05-25T00:16:12.276Z,8.97
2023-05-25T00:19:14.627Z,8.92
2023-05-25T00:22:16.245Z,8.86
2023-05-25T00:25:18.860Z,8.80
2023-05-25T00:28:20.410Z,8.75
2023-05-25T00:31:22.655Z,8.68
2023-05-25T00:34:24.278Z,8.63
2023-05-25T00:37:26.123Z,8.56
2023-05-25T00:40:27.809Z,8.49
2023-05-25T00:43:29.413Z,8.45
2023-05-25T00:46:34.342Z,8.37
2023-05-25T00:49:36.787Z,8.32
2023-05-25T00:52:38.451Z,8.28
2023-05-25T00:55:54.524Z,8.23
2023-05-25T00:58:59.180Z,8.18
2023-05-25T01:02:04.753Z,8.13
2023-05-25T01:05:09.619Z,8.07
2023-05-25T01:08:13.597Z,8.00
2023-05-25T01:11:17.024Z,7.96
2023-05-25T01:14:20.460Z,7.91
2023-05-25T01:17:22.366Z,7.86
2023-05-25T01:20:24.026Z,7.82
2023-05-25T01:23:33.294Z,7.74
2023-05-25T01:26:42.687Z,7.69
2023-05-25T01:29:46.055Z,7.65
2023-05-25T01:32:49.606Z,7.61
2023-05-25T01:35:52.517Z,7.55
2023-05-25T01:38:54.560Z,7.49
2023-05-25T01:41:56.438Z,7.44
2023-05-25T01:44:59.673Z,7.41
2023-05-25T01:48:22.782Z,7.38
2023-05-25T01:51:52.765Z,7.33
2023-05-25T01:55:06.914Z,7.27
2023-05-25T01:58:08.942Z,7.23
2023-05-25T02:01:12.278Z,7.19
2023-05-25T02:04:15.359Z,7.17
2023-05-25T02:07:17.226Z,7.14
2023-05-25T02:10:18.856Z,7.10
2023-05-25T02:13:20.773Z,7.08
2023-05-25T02:16:22.367Z,7.05
2023-05-25T02:19:23.995Z,7.04
2023-05-25T02:22:25.685Z,7.01
2023-05-25T02:25:27.294Z,6.98
2023-05-25T02:28:28.952Z,6.95
2023-05-25T02:31:30.658Z,6.92
2023-05-25T02:34:32.443Z,6.90
2023-05-25T02:37:34.059Z,6.90
2023-05-25T02:40:35.902Z,6.88
2023-05-25T02:43:37.584Z,6.86
2023-05-25T02:46:39.336Z,6.87
2023-05-25T02:49:40.972Z,6.86
2023-05-25T02:52:42.573Z,6.85
2023-05-25T02:55:44.948Z,6.83
2023-05-25T02:58:46.958Z,6.81
2023-05-25T03:01:48.509Z,6.79
2023-05-25T03:04:53.901Z,6.75
2023-05-25T03:07:55.697Z,6.73
2023-05-25T03:10:57.369Z,6.69
2023-05-25T03:13:59.604Z,6.67
2023-05-25T03:17:01.510Z,6.67
2023-05-25T03:20:04.256Z,6.65
2023-05-25T03:23:05.961Z,6.64
2023-05-25T03:26:07.515Z,6.65
2023-05-25T03:29:09.178Z,6.65
2023-05-25T03:32:10.932Z,6.64
2023-05-25T03:35:12.568Z,6.66
2023-05-25T03:38:14.248Z,6.66
2023-05-25T03:41:15.858Z,6.66
2023-05-25T03:44:17.503Z,6.67
2023-05-25T03:47:19.187Z,6.67
2023-05-25T03:50:20.927Z,6.69
2023-05-25T03:53:22.505Z,6.72
2023-05-25T03:56:24.214Z,6.73
2023-05-25T03:59:26.018Z,6.76
2023-05-25T04:02:27.704Z,6.78
2023-05-25T04:05:29.521Z,6.82
2023-05-25T04:08:31.160Z,6.85
2023-05-25T04:11:32.765Z,6.88
2023-05-25T04:14:34.340Z,6.89
2023-05-25T04:17:39.230Z,6.92
2023-05-25T04:20:41.118Z,6.94
2023-05-25T04:23:43.267Z,6.98
2023-05-25T04:26:46.279Z,7.01
2023-05-25T04:29:50.238Z,7.04
2023-05-25T04:32:51.879Z,7.05
2023-05-25T04:35:54.603Z,7.08
2023-05-25T04:38:56.177Z,7.09
2023-05-25T04:41:58.289Z,7.11
2023-05-25T04:45:00.583Z,7.14
2023-05-25T04:48:03.183Z,7.17
2023-05-25T04:51:04.904Z,7.22
2023-05-25T04:54:07.001Z,7.26
2023-05-25T04:57:08.680Z,7.30
2023-05-25T05:00:12.131Z,7.35
2023-05-25T05:03:14.150Z,7.40
2023-05-25T05:06:16.384Z,7.46
2023-05-25T05:09:18.270Z,7.52
2023-05-25T05:12:19.941Z,7.58
2023-05-25T05:15:21.728Z,7.65
2023-05-25T05:18:23.332Z,7.71
2023-05-25T05:21:24.920Z,7.78
2023-05-25T05:24:27.305Z,7.85
2023-05-25T05:27:28.864Z,7.91
2023-05-25T05:30:30.602Z,7.98
2023-05-25T05:33:32.303Z,8.05
2023-05-25T05:36:42.099Z,8.12
2023-05-25T05:39:54.560Z,8.20
2023-05-25T05:42:56.142Z,8.26
2023-05-25T05:45:57.694Z,8.31
2023-05-25T05:48:59.282Z,8.47
2023-05-25T05:52:01.188Z,8.63
2023-05-25T05:55:02.819Z,8.74
2023-05-25T05:58:04.447Z,8.80
2023-05-25T06:01:06.428Z,8.85
2023-05-25T06:04:08.218Z,8.90
2023-05-25T06:07:09.900Z,9.06
2023-05-25T06:10:11.600Z,9.36
2023-05-25T06:13:13.195Z,9.52
2023-05-25T06:16:14.842Z,9.57
2023-05-25T06:19:16.487Z,9.60
2023-05-25T06:22:18.145Z,9.62
2023-05-25T06:25:20.442Z,9.62
2023-05-25T06:28:22.096Z,9.66
2023-05-25T06:31:23.714Z,9.70
2023-05-25T06:34:26.243Z,9.72
2023-05-25T06:37:35.075Z,9.77
2023-05-25T06:40:36.734Z,9.82
2023-05-25T06:43:38.455Z,9.86
2023-05-25T06:46:40.099Z,9.92
2023-05-25T06:49:41.827Z,9.97
2023-05-25T06:52:43.491Z,10.04
2023-05-25T06:55:45.364Z,10.11
2023-05-25T06:58:47.225Z,10.14
2023-05-25T07:01:49.037Z,10.17
2023-05-25T07:04:51.742Z,10.20
2023-05-25T07:07:53.497Z,10.22
2023-05-25T07:10:55.151Z,10.27
2023-05-25T07:13:56.732Z,10.32
2023-05-25T07:16:58.348Z,10.35
2023-05-25T07:19:59.947Z,10.41
2023-05-25T07:23:01.699Z,10.45
2023-05-25T07:26:05.696Z,10.57
2023-05-25T07:29:07.756Z,10.70
2023-05-25T07:32:09.330Z,10.80
2023-05-25T07:35:10.949Z,10.88
2023-05-25T07:38:12.588Z,10.93
2023-05-25T07:41:14.694Z,10.95
2023-05-25T07:44:16.373Z,10.96
2023-05-25T07:47:17.953Z,11.00
2023-05-25T07:50:19.607Z,11.05
2023-05-25T07:53:21.526Z,11.10
2023-05-25T07:56:23.549Z,11.16
2023-05-25T07:59:26.143Z,11.20
2023-05-25T08:02:28.035Z,11.25
2023-05-25T08:05:29.646Z,11.30
2023-05-25T08:08:31.615Z,11.34
2023-05-25T08:11:33.319Z,11.40
2023-05-25T08:14:34.939Z,11.41
2023-05-25T08:17:36.688Z,11.42
2023-05-25T08:20:38.460Z,11.44
2023-05-25T08:23:42.755Z,11.48
2023-05-25T08:26:54.349Z,11.51
2023-05-25T08:29:56.665Z,11.57
2023-05-25T08:32:58.335Z,11.65
2023-05-25T08:35:59.999Z,11.71
2023-05-25T08:39:02.097Z,11.73
2023-05-25T08:42:03.976Z,11.74
2023-05-25T08:45:06.269Z,11.77
2023-05-25T08:48:12.387Z,11.80
2023-05-25T08:51:16.433Z,11.82
2023-05-25T08:54:22.631Z,11.80
2023-05-25T08:57:34.575Z,11.84
2023-05-25T09:00:43.037Z,11.86
2023-05-25T09:03:46.900Z,11.88
2023-05-25T09:06:57.198Z,11.87
2023-05-25T09:10:08.973Z,11.91
2023-05-25T09:13:21.182Z,11.95
2023-05-25T09:16:26.072Z,11.98
2023-05-25T09:19:27.675Z,12.04
2023-05-25T09:22:29.289Z,12.12
2023-05-25T09:25:31.938Z,12.18
2023-05-25T09:28:33.486Z,12.20
2023-05-25T09:31:36.312Z,12.26
2023-05-25T09:34:37.957Z,12.33
2023-05-25T09:37:41.590Z,12.38
2023-05-25T09:40:43.920Z,12.43
2023-05-25T09:43:58.143Z,12.49
2023-05-25T09:47:09.677Z,12.59
2023-05-25T09:50:11.819Z,12.67
2023-05-25T09:53:13.834Z,12.71
2023-05-25T09:56:15.547Z,12.75
2023-05-25T09:59:17.411Z,12.81
2023-05-25T10:02:19.256Z,12.86
2023-05-25T10:05:21.999Z,12.92
2023-05-25T10:08:28.616Z,12.95
2023-05-25T10:11:32.237Z,13.07
2023-05-25T10:14:36.937Z,13.30
2023-05-25T10:17:51.302Z,13.50
2023-05-25T10:21:03.598Z,13.62
2023-05-25T10:24:25.074Z,13.68
2023-05-25T10:27:34.284Z,13.72
2023-05-25T10:30:37.230Z,13.73
2023-05-25T10:33:39.411Z,13.73
2023-05-25T10:36:41.627Z,13.75
2023-05-25T10:39:46.053Z,13.73
2023-05-25T10:42:48.316Z,13.72
2023-05-25T10:45:49.931Z,13.71
2023-05-25T10:49:00.631Z,13.70
2023-05-25T10:52:03.689Z,13.70
2023-05-25T10:55:06.042Z,13.70
2023-05-25T10:58:16.918Z,13.68
2023-05-25T11:01:18.759Z,13.71
2023-05-25T11:04:20.703Z,13.76
2023-05-25T11:07:22.413Z,13.79
2023-05-25T11:10:48.353Z,13.89
2023-05-25T11:13:50.687Z,13.93
2023-05-25T11:17:12.921Z,13.97
2023-05-25T11:20:27.891Z,13.97
2023-05-25T11:23:30.331Z,13.98
2023-05-25T11:26:35.757Z,14.09
2023-05-25T11:29:38.003Z,14.11
2023-05-25T11:32:50.625Z,14.09
2023-05-25T11:35:55.323Z,14.11
2023-05-25T11:39:04.696Z,14.22
2023-05-25T11:42:11.516Z,14.40
2023-05-25T11:45:14.742Z,14.57
2023-05-25T11:48:16.843Z,14.68
2023-05-25T11:51:24.392Z,14.74
2023-05-25T11:54:29.684Z,14.77
2023-05-25T11:57:31.506Z,14.81
2023-05-25T12:00:33.421Z,14.93
2023-05-25T12:03:35.336Z,15.03
2023-05-25T12:06:38.052Z,15.14
2023-05-25T12:09:40.001Z,15.21
2023-05-25T12:12:42.616Z,15.21
2023-05-25T12:15:44.674Z,15.25
2023-05-25T12:18:46.774Z,15.29
2023-05-25T12:21:51.326Z,15.33
2023-05-25T12:24:53.218Z,15.40
2023-05-25T12:28:15.078Z,15.50
2023-05-25T12:31:21.867Z,15.50
2023-05-25T12:34:28.854Z,15.45
2023-05-25T12:37:30.531Z,15.46
2023-05-25T12:40:32.296Z,15.50
2023-05-25T12:43:40.614Z,15.58
2023-05-25T12:46:42.294Z,15.63
2023-05-25T12:49:45.495Z,15.66
2023-05-25T12:52:48.788Z,15.75
2023-05-25T12:55:50.346Z,15.83
2023-05-25T12:58:52.100Z,15.90
2023-05-25T13:01:53.786Z,15.97
2023-05-25T13:04:55.471Z,15.96
2023-05-25T13:07:58.217Z,15.88
2023-05-25T13:11:01.369Z,15.92
2023-05-25T13:14:04.315Z,15.90
2023-05-25T13:17:06.368Z,15.90
2023-05-25T13:20:08.329Z,15.88
2023-05-25T13:23:09.868Z,15.82
2023-05-25T13:26:12.592Z,15.81
2023-05-25T13:29:14.286Z,15.84
2023-05-25T13:32:16.087Z,15.81
2023-05-25T13:35:37.946Z,15.75
2023-05-25T13:38:40.052Z,15.77
2023-05-25T13:41:42.016Z,15.81
2023-05-25T13:44:43.589Z,15.88
2023-05-25T13:47:46.248Z,15.91
2023-05-25T13:50:48.064Z,15.96
2023-05-25T13:53:49.924Z,16.02
2023-05-25T13:56:51.515Z,16.08
2023-05-25T13:59:53.147Z,16.08
2023-05-25T14:02:55.102Z,16.03
2023-05-25T14:05:57.060Z,15.98
2023-05-25T14:08:58.682Z,15.94
2023-05-25T14:12:00.438Z,15.91
2023-05-25T14:15:02.162Z,15.83
2023-05-25T14:18:03.969Z,15.80
2023-05-25T14:21:05.714Z,15.75
2023-05-25T14:24:07.382Z,15.69
2023-05-25T14:27:09.314Z,15.63
2023-05-25T14:30:11.353Z,15.59
2023-05-25T14:33:14.604Z,15.57
2023-05-25T14:36:16.264Z,15.49
2023-05-25T14:39:17.877Z,15.35
2023-05-25T14:42:19.454Z,15.31
2023-05-25T14:45:21.143Z,15.32
2023-05-25T14:48:25.502Z,15.36
2023-05-25T14:51:27.298Z,15.37
2023-05-25T14:54:28.982Z,15.35
2023-05-25T14:57:30.800Z,15.31
2023-05-25T15:00:32.395Z,15.25
2023-05-25T15:03:34.110Z,15.22
2023-05-25T15:06:36.829Z,15.12
2023-05-25T15:09:38.538Z,15.07
2023-05-25T15:12:40.128Z,15.03
2023-05-25T15:15:41.912Z,15.01
2023-05-25T15:18:44.490Z,14.99
2023-05-25T15:21:46.126Z,14.94
2023-05-25T15:24:48.851Z,14.94
2023-05-25T15:27:50.670Z,14.89
2023-05-25T15:30:52.222Z,14.83
2023-05-25T15:33:58.587Z,14.76
2023-05-25T15:37:01.072Z,14.76
2023-05-25T15:40:02.650Z,14.77
2023-05-25T15:43:04.273Z,14.76
2023-05-25T15:46:05.955Z,14.73
2023-05-25T15:49:11.481Z,14.70
2023-05-25T15:52:13.305Z,14.65
2023-05-25T15:55:14.894Z,14.58
2023-05-25T15:58:17.778Z,14.53
2023-05-25T16:01:19.571Z,14.52
2023-05-25T16:04:21.332Z,14.50
2023-05-25T16:07:23.118Z,14.49
2023-05-25T16:10:24.753Z,14.48
2023-05-25T16:13:26.354Z,14.48
2023-05-25T16:16:28.090Z,14.45
2023-05-25T16:19:29.747Z,14.40
2023-05-25T16:22:31.374Z,14.38
2023-05-25T16:25:32.943Z,14.33
2023-05-25T16:28:34.562Z,14.30
2023-05-25T16:31:36.234Z,14.27
2023-05-25T16:34:37.815Z,14.25
2023-05-25T16:37:39.552Z,14.23
2023-05-25T16:40:41.218Z,14.16
2023-05-25T16:43:42.838Z,14.12
2023-05-25T16:46:44.528Z,14.06
2023-05-25T16:49:46.173Z,14.01
2023-05-25T16:52:47.803Z,14.00
2023-05-25T16:55:49.412Z,13.99
2023-05-25T16:58:51.799Z,13.98
2023-05-25T17:01:53.553Z,13.95
2023-05-25T17:04:55.908Z,13.92
2023-05-25T17:07:57.612Z,13.89
2023-05-25T17:10:59.163Z,13.84
2023-05-25T17:14:00.823Z,13.80
2023-05-25T17:17:02.453Z,13.76
2023-05-25T17:20:04.277Z,13.70
2023-05-25T17:23:06.268Z,13.63
2023-05-25T17:26:07.849Z,13.55
2023-05-25T17:29:09.587Z,13.48
2023-05-25T17:32:11.346Z,13.44
2023-05-25T17:35:13.080Z,13.40
2023-05-25T17:38:14.745Z,13.32
2023-05-25T17:41:16.513Z,13.25
2023-05-25T17:44:18.164Z,13.21
2023-05-25T17:47:19.789Z,13.14
2023-05-25T17:50:21.414Z,13.07
2023-05-25T17:53:23.078Z,13.03
2023-05-25T17:56:24.869Z,12.97
2023-05-25T17:59:26.478Z,12.85
2023-05-25T18:02:30.412Z,12.78
2023-05-25T18:05:32.167Z,12.70
2023-05-25T18:08:33.891Z,12.64
2023-05-25T18:11:36.658Z,12.66
2023-05-25T18:14:38.278Z,12.65
2023-05-25T18:17:40.007Z,12.59
2023-05-25T18:20:41.636Z,12.49
2023-05-25T18:23:43.380Z,12.41
2023-05-25T18:26:46.362Z,12.35
2023-05-25T18:29:47.959Z,12.28
2023-05-25T18:32:49.660Z,12.20
2023-05-25T18:35:51.266Z,12.11
2023-05-25T18:38:52.948Z,12.06
2023-05-25T18:41:54.812Z,12.02
2023-05-25T18:44:56.549Z,11.97
2023-05-25T18:47:58.516Z,11.89
2023-05-25T18:51:00.229Z,11.80
2023-05-25T18:54:01.839Z,11.72
2023-05-25T18:57:03.818Z,11.64
2023-05-25T19:00:07.512Z,11.54
2023-05-25T19:03:09.311Z,11.45
2023-05-25T19:06:10.933Z,11.36
2023-05-25T19:09:14.568Z,11.30
2023-05-25T19:12:16.189Z,11.24
2023-05-25T19:15:17.768Z,11.19
2023-05-25T19:18:19.390Z,11.13
2023-05-25T19:21:21.107Z,11.05
2023-05-25T19:24:22.649Z,10.99
2023-05-25T19:27:24.233Z,10.92
2023-05-25T19:30:25.983Z,10.86
2023-05-25T19:33:27.674Z,10.81
2023-05-25T19:36:29.392Z,11.02
2023-05-25T19:39:31.770Z,10.93
2023-05-25T19:42:33.432Z,10.87
2023-05-25T19:45:35.043Z,10.81
2023-05-25T19:48:38.202Z,10.75
2023-05-25T19:51:40.193Z,10.69
2023-05-25T19:54:41.761Z,10.63
2023-05-25T19:57:43.538Z,10.59
2023-05-25T20:00:45.179Z,10.54
2023-05-25T20:03:46.974Z,10.49
2023-05-25T20:06:48.892Z,10.44
2023-05-25T20:09:50.729Z,10.38
2023-05-25T20:12:52.444Z,10.37
2023-05-25T20:15:54.148Z,10.32
2023-05-25T20:18:55.788Z,10.30
2023-05-25T20:21:58.085Z,10.26
2023-05-25T20:25:00.935Z,10.21
2023-05-25T20:28:02.544Z,10.15
2023-05-25T20:31:05.013Z,10.12
2023-05-25T20:34:06.608Z,10.09
2023-05-25T20:37:08.206Z,10.03
2023-05-25T20:40:10.096Z,9.99
2023-05-25T20:43:11.757Z,9.96
2023-05-25T20:46:14.166Z,9.93
2023-05-25T20:49:16.034Z,9.92
2023-05-25T20:52:17.843Z,9.84
2023-05-25T20:55:20.242Z,9.82
2023-05-25T20:58:21.899Z,9.78
2023-05-25T21:01:23.589Z,9.74
2023-05-25T21:04:25.226Z,9.72
2023-05-25T21:07:26.896Z,9.69
2023-05-25T21:10:28.864Z,9.67
2023-05-25T21:13:30.510Z,9.63
2023-05-25T21:16:32.258Z,9.60
2023-05-25T21:19:33.873Z,9.58
2023-05-25T21:22:35.653Z,9.56
2023-05-25T21:25:37.247Z,9.52
2023-05-25T21:28:39.005Z,9.46
2023-05-25T21:31:40.791Z,9.43
2023-05-25T21:34:42.489Z,9.41
2023-05-25T21:37:45.415Z,9.38
2023-05-25T21:40:47.037Z,9.33
2023-05-25T21:43:48.689Z,9.29
2023-05-25T21:46:50.489Z,9.28
2023-05-25T21:49:52.280Z,9.28
2023-05-25T21:52:53.960Z,9.26
2023-05-25T21:55:55.703Z,9.26
2023-05-25T21:58:57.342Z,9.26
2023-05-25T22:01:58.943Z,9.24
2023-05-25T22:05:00.559Z,9.20
2023-05-25T22:08:05.172Z,9.20
2023-05-25T22:11:07.230Z,9.18
2023-05-25T22:14:08.849Z,9.16
2023-05-25T22:17:10.628Z,9.29
2023-05-25T22:20:12.405Z,9.24
2023-05-25T22:23:14.143Z,9.19
2023-05-25T22:26:15.906Z,9.13
2023-05-25T22:29:17.520Z,9.08
2023-05-25T22:32:19.165Z,9.00
2023-05-25T22:35:20.921Z,8.95
2023-05-25T22:38:22.569Z,8.89
2023-05-25T22:41:24.560Z,8.84
2023-05-25T22:44:26.114Z,8.80
2023-05-25T22:47:27.678Z,8.74
2023-05-25T22:50:29.580Z,8.68
2023-05-25T22:53:31.145Z,8.63
2023-05-25T22:56:32.716Z,8.59
2023-05-25T22:59:34.346Z,8.53
2023-05-25T23:02:36.034Z,8.49
2023-05-25T23:05:37.804Z,8.45
2023-05-25T23:08:39.496Z,8.40
2023-05-25T23:11:41.123Z,8.34
2023-05-25T23:14:44.598Z,8.30
2023-05-25T23:17:46.334Z,8.24
2023-05-25T23:20:47.941Z,8.19
2023-05-25T23:23:49.531Z,8.13
2023-05-25T23:26:51.110Z,8.07
2023-05-25T23:29:53.040Z,8.01
2023-05-25T23:32:54.948Z,7.95
2023-05-25T23:35:56.634Z,7.90
2023-05-25T23:38:58.202Z,7.86
2023-05-25T23:41:59.787Z,7.81
2023-05-25T23:45:01.358Z,7.76
2023-05-25T23:48:03.119Z,7.69
2023-05-25T23:51:07.442Z,7.65
2023-05-25T23:54:10.096Z,7.59
2023-05-25T23:57:11.800Z,7.54
